sensor_id;sensor_type;location;lat;lon;timestamp;pressure;altitude;pressure_sealevel;temperature;humidity
83152;BME280;73381;58.502;8.624;2023-11-19T00:01:02;100207.66;;;-3.92;86.86
83152;BME280;73381;58.502;8.624;2023-11-19T00:04:04;100209.44;;;-3.94;87.67
83152;BME280;73381;58.502;8.624;2023-11-19T00:07:08;100186.28;;;-3.97;87.54
83152;BME280;73381;58.502;8.624;2023-11-19T00:10:10;100059.72;;;-4.63;87.38
83152;BME280;73381;58.502;8.624;2023-11-19T00:13:13;100181.88;;;-3.92;88.50
83152;BME280;73381;58.502;8.624;2023-11-19T00:16:15;100173.13;;;-3.86;88.27
83152;BME280;73381;58.502;8.624;2023-11-19T00:19:17;100166.25;;;-3.85;88.48
83152;BME280;73381;58.502;8.624;2023-11-19T00:22:21;100143.28;;;-3.96;88.68
83152;BME280;73381;58.502;8.624;2023-11-19T00:25:23;100164.28;;;-3.74;88.80
83152;BME280;73381;58.502;8.624;2023-11-19T00:28:25;100143.63;;;-3.74;88.52
83152;BME280;73381;58.502;8.624;2023-11-19T00:31:27;100131.75;;;-3.80;87.99
83152;BME280;73381;58.502;8.624;2023-11-19T00:34:29;100131.50;;;-3.71;87.97
83152;BME280;73381;58.502;8.624;2023-11-19T00:37:33;100120.38;;;-3.73;88.94
83152;BME280;73381;58.502;8.624;2023-11-19T00:40:35;100120.28;;;-3.70;89.21
83152;BME280;73381;58.502;8.624;2023-11-19T00:43:37;100099.72;;;-3.73;88.93
83152;BME280;73381;58.502;8.624;2023-11-19T00:46:39;100108.94;;;-3.63;88.85
83152;BME280;73381;58.502;8.624;2023-11-19T00:49:41;100094.38;;;-3.65;89.22
83152;BME280;73381;58.502;8.624;2023-11-19T00:52:46;100080.13;;;-3.80;88.17
83152;BME280;73381;58.502;8.624;2023-11-19T00:55:48;100094.09;;;-3.54;88.89
83152;BME280;73381;58.502;8.624;2023-11-19T00:58:50;100090.66;;;-3.55;89.29
83152;BME280;73381;58.502;8.624;2023-11-19T01:01:52;100077.72;;;-3.53;89.97
83152;BME280;73381;58.502;8.624;2023-11-19T01:04:54;100065.66;;;-3.53;88.93
83152;BME280;73381;58.502;8.624;2023-11-19T01:07:58;100064.75;;;-3.50;89.55
83152;BME280;73381;58.502;8.624;2023-11-19T01:11:00;100065.47;;;-3.45;89.09
83152;BME280;73381;58.502;8.624;2023-11-19T01:14:02;100049.09;;;-3.44;88.92
83152;BME280;73381;58.502;8.624;2023-11-19T01:17:04;100013.28;;;-3.56;89.59
83152;BME280;73381;58.502;8.624;2023-11-19T01:20:07;100030.84;;;-3.37;90.05
83152;BME280;73381;58.502;8.624;2023-11-19T01:23:10;100024.78;;;-3.36;90.49
83152;BME280;73381;58.502;8.624;2023-11-19T01:26:13;100021.28;;;-3.33;89.55
83152;BME280;73381;58.502;8.624;2023-11-19T01:29:16;100015.13;;;-3.29;90.80
83152;BME280;73381;58.502;8.624;2023-11-19T01:32:18;100004.69;;;-3.26;89.40
83152;BME280;73381;58.502;8.624;2023-11-19T01:35:20;99930.09;;;-3.65;90.30
83152;BME280;73381;58.502;8.624;2023-11-19T01:38:26;99992.53;;;-3.21;90.89
83152;BME280;73381;58.502;8.624;2023-11-19T01:41:28;99968.75;;;-3.32;90.71
83152;BME280;73381;58.502;8.624;2023-11-19T01:44:30;99958.16;;;-3.23;90.98
83152;BME280;73381;58.502;8.624;2023-11-19T01:47:32;99960.50;;;-3.15;90.67
83152;BME280;73381;58.502;8.624;2023-11-19T01:50:41;99975.75;;;-3.06;90.07
83152;BME280;73381;58.502;8.624;2023-11-19T01:53:44;99937.16;;;-3.12;90.42
83152;BME280;73381;58.502;8.624;2023-11-19T01:56:47;99936.75;;;-2.99;89.67
83152;BME280;73381;58.502;8.624;2023-11-19T01:59:49;99924.69;;;-2.98;89.52
83152;BME280;73381;58.502;8.624;2023-11-19T02:02:51;99919.44;;;-2.95;90.26
83152;BME280;73381;58.502;8.624;2023-11-19T02:05:54;99915.06;;;-2.93;89.82
83152;BME280;73381;58.502;8.624;2023-11-19T02:08:57;99906.38;;;-2.90;90.33
83152;BME280;73381;58.502;8.624;2023-11-19T02:11:59;99894.47;;;-2.96;89.86
83152;BME280;73381;58.502;8.624;2023-11-19T02:15:02;99891.47;;;-2.82;89.32
83152;BME280;73381;58.502;8.624;2023-11-19T02:18:19;99888.03;;;-2.81;90.39
83152;BME280;73381;58.502;8.624;2023-11-19T02:21:22;99882.66;;;-2.75;89.41
83152;BME280;73381;58.502;8.624;2023-11-19T02:24:27;99810.44;;;-3.06;89.98
83152;BME280;73381;58.502;8.624;2023-11-19T02:27:44;99800.22;;;-3.11;88.60
83152;BME280;73381;58.502;8.624;2023-11-19T02:30:46;99849.03;;;-2.75;88.97
83152;BME280;73381;58.502;8.624;2023-11-19T02:33:48;99850.44;;;-2.65;89.44
83152;BME280;73381;58.502;8.624;2023-11-19T02:36:50;99816.91;;;-2.68;89.28
83152;BME280;73381;58.502;8.624;2023-11-19T02:39:53;99771.44;;;-2.99;89.26
83152;BME280;73381;58.502;8.624;2023-11-19T02:42:57;99837.31;;;-2.59;89.81
83152;BME280;73381;58.502;8.624;2023-11-19T02:46:01;99769.84;;;-3.03;90.63
83152;BME280;73381;58.502;8.624;2023-11-19T02:49:03;99752.38;;;-2.94;90.03
83152;BME280;73381;58.502;8.624;2023-11-19T02:52:06;99811.28;;;-2.53;90.74
83152;BME280;73381;58.502;8.624;2023-11-19T02:55:08;99801.50;;;-2.45;89.85
83152;BME280;73381;58.502;8.624;2023-11-19T02:58:12;99803.06;;;-2.41;90.58
83152;BME280;73381;58.502;8.624;2023-11-19T03:01:21;99805.28;;;-2.30;89.97
83152;BME280;73381;58.502;8.624;2023-11-19T03:04:23;99799.22;;;-2.29;89.30
83152;BME280;73381;58.502;8.624;2023-11-19T03:07:26;99720.50;;;-2.70;89.76
83152;BME280;73381;58.502;8.624;2023-11-19T03:10:28;99798.38;;;-2.29;90.15
83152;BME280;73381;58.502;8.624;2023-11-19T03:13:32;99801.66;;;-2.24;89.82
83152;BME280;73381;58.502;8.624;2023-11-19T03:16:34;99798.19;;;-2.23;89.55
83152;BME280;73381;58.502;8.624;2023-11-19T03:19:36;99792.09;;;-2.22;90.36
83152;BME280;73381;58.502;8.624;2023-11-19T03:22:38;99780.81;;;-2.20;89.30
83152;BME280;73381;58.502;8.624;2023-11-19T03:25:41;99784.22;;;-2.19;89.96
83152;BME280;73381;58.502;8.624;2023-11-19T03:28:44;99703.84;;;-2.61;89.52
83152;BME280;73381;58.502;8.624;2023-11-19T03:31:47;99782.38;;;-2.16;90.27
83152;BME280;73381;58.502;8.624;2023-11-19T03:34:49;99773.94;;;-2.21;90.42
83152;BME280;73381;58.502;8.624;2023-11-19T03:37:52;99761.72;;;-2.17;89.37
83152;BME280;73381;58.502;8.624;2023-11-19T03:40:54;99765.88;;;-2.13;89.61
83152;BME280;73381;58.502;8.624;2023-11-19T03:43:58;99760.72;;;-2.13;89.32
83152;BME280;73381;58.502;8.624;2023-11-19T03:47:00;99762.47;;;-2.14;89.76
83152;BME280;73381;58.502;8.624;2023-11-19T03:50:09;99746.22;;;-2.17;90.10
83152;BME280;73381;58.502;8.624;2023-11-19T03:53:12;99653.44;;;-2.73;89.69
83152;BME280;73381;58.502;8.624;2023-11-19T03:56:14;99637.31;;;-2.80;89.70
83152;BME280;73381;58.502;8.624;2023-11-19T03:59:18;99755.91;;;-2.22;90.41
83152;BME280;73381;58.502;8.624;2023-11-19T04:02:20;99710.88;;;-2.42;90.69
83152;BME280;73381;58.502;8.624;2023-11-19T04:05:23;99734.84;;;-2.36;90.30
83152;BME280;73381;58.502;8.624;2023-11-19T04:08:25;99714.06;;;-2.33;90.19
83152;BME280;73381;58.502;8.624;2023-11-19T04:11:28;99699.66;;;-2.41;90.28
83152;BME280;73381;58.502;8.624;2023-11-19T04:14:32;99617.63;;;-2.84;90.62
83152;BME280;73381;58.502;8.624;2023-11-19T04:17:34;99620.69;;;-2.73;90.45
83152;BME280;73381;58.502;8.624;2023-11-19T04:20:36;99683.16;;;-2.36;90.19
83152;BME280;73381;58.502;8.624;2023-11-19T04:23:39;99687.34;;;-2.34;90.64
83152;BME280;73381;58.502;8.624;2023-11-19T04:26:41;99681.53;;;-2.41;90.63
83152;BME280;73381;58.502;8.624;2023-11-19T04:29:45;99667.38;;;-2.54;91.42
83152;BME280;73381;58.502;8.624;2023-11-19T04:32:47;99625.31;;;-2.82;90.89
83152;BME280;73381;58.502;8.624;2023-11-19T04:35:49;99663.22;;;-2.58;90.34
83152;BME280;73381;58.502;8.624;2023-11-19T04:38:51;99676.38;;;-2.41;90.92
83152;BME280;73381;58.502;8.624;2023-11-19T04:41:53;99599.72;;;-2.88;91.03
83152;BME280;73381;58.502;8.624;2023-11-19T04:44:58;99664.47;;;-2.45;91.05
83152;BME280;73381;58.502;8.624;2023-11-19T04:48:00;99669.69;;;-2.46;91.28
83152;BME280;73381;58.502;8.624;2023-11-19T04:51:04;99663.56;;;-2.44;90.52
83152;BME280;73381;58.502;8.624;2023-11-19T04:54:06;99661.09;;;-2.47;90.39
83152;BME280;73381;58.502;8.624;2023-11-19T04:57:08;99666.28;;;-2.47;91.31
83152;BME280;73381;58.502;8.624;2023-11-19T05:00:14;99611.47;;;-2.80;90.65
83152;BME280;73381;58.502;8.624;2023-11-19T05:03:18;99649.06;;;-2.48;90.60
83152;BME280;73381;58.502;8.624;2023-11-19T05:06:21;99659.28;;;-2.45;91.09
83152;BME280;73381;58.502;8.624;2023-11-19T05:09:23;99651.66;;;-2.48;90.80
83152;BME280;73381;58.502;8.624;2023-11-19T05:12:26;99649.19;;;-2.51;90.18
83152;BME280;73381;58.502;8.624;2023-11-19T05:15:30;99635.38;;;-2.50;90.05
83152;BME280;73381;58.502;8.624;2023-11-19T05:18:32;99644.03;;;-2.51;90.36
83152;BME280;73381;58.502;8.624;2023-11-19T05:21:34;99631.19;;;-2.54;90.13
83152;BME280;73381;58.502;8.624;2023-11-19T05:24:37;99504.22;;;-3.38;89.69
83152;BME280;73381;58.502;8.624;2023-11-19T05:27:39;99607.31;;;-2.60;89.57
83152;BME280;73381;58.502;8.624;2023-11-19T05:30:44;99598.00;;;-2.64;90.64
83152;BME280;73381;58.502;8.624;2023-11-19T05:33:46;99617.78;;;-2.63;89.68
83152;BME280;73381;58.502;8.624;2023-11-19T05:36:48;99596.03;;;-2.81;90.62
83152;BME280;73381;58.502;8.624;2023-11-19T05:39:50;99484.66;;;-3.44;89.61
83152;BME280;73381;58.502;8.624;2023-11-19T05:42:53;99627.94;;;-2.59;89.80
83152;BME280;73381;58.502;8.624;2023-11-19T05:45:57;99619.47;;;-2.62;89.86
83152;BME280;73381;58.502;8.624;2023-11-19T05:48:59;99598.97;;;-2.67;89.67
83152;BME280;73381;58.502;8.624;2023-11-19T05:52:02;99610.75;;;-2.60;89.91
83152;BME280;73381;58.502;8.624;2023-11-19T05:55:04;99547.53;;;-2.98;90.67
83152;BME280;73381;58.502;8.624;2023-11-19T05:58:07;99605.63;;;-2.61;90.91
83152;BME280;73381;58.502;8.624;2023-11-19T06:01:10;99597.88;;;-2.61;90.59
83152;BME280;73381;58.502;8.624;2023-11-19T06:04:13;99582.56;;;-2.66;90.36
83152;BME280;73381;58.502;8.624;2023-11-19T06:07:16;99581.81;;;-2.70;89.84
83152;BME280;73381;58.502;8.624;2023-11-19T06:10:19;99519.63;;;-3.12;90.31
83152;BME280;73381;58.502;8.624;2023-11-19T06:13:21;99591.09;;;-2.64;90.53
83152;BME280;73381;58.502;8.624;2023-11-19T06:16:27;99515.03;;;-3.04;89.77
83152;BME280;73381;58.502;8.624;2023-11-19T06:19:29;99558.47;;;-2.68;90.27
83152;BME280;73381;58.502;8.624;2023-11-19T06:22:33;99560.84;;;-2.62;89.96
83152;BME280;73381;58.502;8.624;2023-11-19T06:25:35;99562.78;;;-2.67;90.36
83152;BME280;73381;58.502;8.624;2023-11-19T06:28:37;99569.50;;;-2.63;90.56
83152;BME280;73381;58.502;8.624;2023-11-19T06:31:42;99568.59;;;-2.62;89.61
83152;BME280;73381;58.502;8.624;2023-11-19T06:34:49;99497.84;;;-3.05;90.08
83152;BME280;73381;58.502;8.624;2023-11-19T06:37:53;99554.22;;;-2.69;89.49
83152;BME280;73381;58.502;8.624;2023-11-19T06:40:58;99567.03;;;-2.66;89.61
83152;BME280;73381;58.502;8.624;2023-11-19T06:44:00;99558.59;;;-2.71;90.75
83152;BME280;73381;58.502;8.624;2023-11-19T06:47:05;99491.22;;;-3.12;90.23
83152;BME280;73381;58.502;8.624;2023-11-19T06:50:07;99487.84;;;-3.14;90.00
83152;BME280;73381;58.502;8.624;2023-11-19T06:53:10;99579.06;;;-2.65;90.54
83152;BME280;73381;58.502;8.624;2023-11-19T06:56:20;99557.63;;;-2.69;90.67
83152;BME280;73381;58.502;8.624;2023-11-19T06:59:23;99487.75;;;-3.11;90.87
83152;BME280;73381;58.502;8.624;2023-11-19T07:02:27;99487.66;;;-3.08;91.07
83152;BME280;73381;58.502;8.624;2023-11-19T07:05:29;99548.16;;;-2.68;90.33
83152;BME280;73381;58.502;8.624;2023-11-19T07:08:32;99549.88;;;-2.69;90.65
83152;BME280;73381;58.502;8.624;2023-11-19T07:11:34;99568.03;;;-2.70;90.38
83152;BME280;73381;58.502;8.624;2023-11-19T07:14:37;99545.53;;;-2.66;91.14
83152;BME280;73381;58.502;8.624;2023-11-19T07:17:41;99543.09;;;-2.71;90.93
83152;BME280;73381;58.502;8.624;2023-11-19T07:20:44;99540.19;;;-2.62;90.92
83152;BME280;73381;58.502;8.624;2023-11-19T07:23:46;99439.09;;;-3.21;90.67
83152;BME280;73381;58.502;8.624;2023-11-19T07:26:49;99541.03;;;-2.61;90.09
83152;BME280;73381;58.502;8.624;2023-11-19T07:29:51;99542.88;;;-2.65;91.04
83152;BME280;73381;58.502;8.624;2023-11-19T07:32:55;99549.75;;;-2.64;90.26
83152;BME280;73381;58.502;8.624;2023-11-19T07:35:57;99468.59;;;-3.05;90.31
83152;BME280;73381;58.502;8.624;2023-11-19T07:39:00;99461.97;;;-3.12;90.82
83152;BME280;73381;58.502;8.624;2023-11-19T07:42:02;99532.31;;;-2.59;90.16
83152;BME280;73381;58.502;8.624;2023-11-19T07:45:05;99518.72;;;-2.64;90.21
83152;BME280;73381;58.502;8.624;2023-11-19T07:48:09;99381.63;;;-3.50;89.52
83152;BME280;73381;58.502;8.624;2023-11-19T07:51:12;99511.38;;;-2.75;90.39
83152;BME280;73381;58.502;8.624;2023-11-19T07:54:14;99527.13;;;-2.59;90.22
83152;BME280;73381;58.502;8.624;2023-11-19T07:57:16;99519.38;;;-2.59;90.27
83152;BME280;73381;58.502;8.624;2023-11-19T08:00:18;99527.13;;;-2.59;89.71
83152;BME280;73381;58.502;8.624;2023-11-19T08:03:22;99526.22;;;-2.58;89.43
83152;BME280;73381;58.502;8.624;2023-11-19T08:06:24;99521.00;;;-2.56;89.69
83152;BME280;73381;58.502;8.624;2023-11-19T08:09:26;99512.66;;;-2.63;88.97
83152;BME280;73381;58.502;8.624;2023-11-19T08:12:28;99511.63;;;-2.59;89.69
83152;BME280;73381;58.502;8.624;2023-11-19T08:15:30;99492.44;;;-2.75;89.40
83152;BME280;73381;58.502;8.624;2023-11-19T08:18:35;99508.50;;;-2.67;89.32
83152;BME280;73381;58.502;8.624;2023-11-19T08:21:36;99538.94;;;-2.52;88.97
83152;BME280;73381;58.502;8.624;2023-11-19T08:24:39;99515.13;;;-2.60;89.33
83152;BME280;73381;58.502;8.624;2023-11-19T08:27:41;99541.34;;;-2.47;89.40
83152;BME280;73381;58.502;8.624;2023-11-19T08:30:43;99533.66;;;-2.49;88.94
83152;BME280;73381;58.502;8.624;2023-11-19T08:33:46;99527.50;;;-2.46;88.70
83152;BME280;73381;58.502;8.624;2023-11-19T08:36:50;99533.66;;;-2.49;88.99
83152;BME280;73381;58.502;8.624;2023-11-19T08:39:52;99553.53;;;-2.51;89.48
83152;BME280;73381;58.502;8.624;2023-11-19T08:42:54;99533.72;;;-2.50;89.75
83152;BME280;73381;58.502;8.624;2023-11-19T08:45:56;99534.41;;;-2.47;88.67
83152;BME280;73381;58.502;8.624;2023-11-19T08:49:00;99454.41;;;-2.93;89.30
83152;BME280;73381;58.502;8.624;2023-11-19T08:52:02;99469.66;;;-2.87;88.99
83152;BME280;73381;58.502;8.624;2023-11-19T08:55:06;99528.41;;;-2.47;89.65
83152;BME280;73381;58.502;8.624;2023-11-19T08:58:08;99527.38;;;-2.43;89.32
83152;BME280;73381;58.502;8.624;2023-11-19T09:01:11;99524.84;;;-2.45;88.78
83152;BME280;73381;58.502;8.624;2023-11-19T09:04:14;99502.13;;;-2.58;89.33
83152;BME280;73381;58.502;8.624;2023-11-19T09:07:17;99500.38;;;-2.58;89.48
83152;BME280;73381;58.502;8.624;2023-11-19T09:10:19;99523.81;;;-2.41;88.31
83152;BME280;73381;58.502;8.624;2023-11-19T09:13:21;99498.75;;;-2.60;89.61
83152;BME280;73381;58.502;8.624;2023-11-19T09:16:23;99509.22;;;-2.42;89.27
83152;BME280;73381;58.502;8.624;2023-11-19T09:19:28;99443.03;;;-2.89;88.95
83152;BME280;73381;58.502;8.624;2023-11-19T09:22:30;99525.56;;;-2.41;88.28
83152;BME280;73381;58.502;8.624;2023-11-19T09:25:32;99499.47;;;-2.57;88.92
83152;BME280;73381;58.502;8.624;2023-11-19T09:28:46;99524.78;;;-2.43;88.86
83152;BME280;73381;58.502;8.624;2023-11-19T09:31:48;99500.38;;;-2.58;89.28
83152;BME280;73381;58.502;8.624;2023-11-19T09:34:51;99522.41;;;-2.48;89.77
83152;BME280;73381;58.502;8.624;2023-11-19T09:37:53;99460.78;;;-2.80;88.61
83152;BME280;73381;58.502;8.624;2023-11-19T09:40:55;99468.63;;;-2.83;88.62
83152;BME280;73381;58.502;8.624;2023-11-19T09:43:58;99514.84;;;-2.52;88.20
83152;BME280;73381;58.502;8.624;2023-11-19T09:46:59;99502.97;;;-2.58;89.21
83152;BME280;73381;58.502;8.624;2023-11-19T09:50:15;99507.59;;;-2.66;89.89
83152;BME280;73381;58.502;8.624;2023-11-19T09:53:18;99485.66;;;-2.78;89.16
83152;BME280;73381;58.502;8.624;2023-11-19T09:56:20;99515.88;;;-2.58;89.99
83152;BME280;73381;58.502;8.624;2023-11-19T09:59:24;99435.88;;;-3.05;90.02
83152;BME280;73381;58.502;8.624;2023-11-19T10:02:27;99502.38;;;-2.64;89.20
83152;BME280;73381;58.502;8.624;2023-11-19T10:05:33;99508.13;;;-2.58;89.18
83152;BME280;73381;58.502;8.624;2023-11-19T10:08:37;99485.91;;;-2.62;89.42
83152;BME280;73381;58.502;8.624;2023-11-19T10:11:41;99507.09;;;-2.54;89.04
83152;BME280;73381;58.502;8.624;2023-11-19T10:14:45;99497.78;;;-2.58;89.88
83152;BME280;73381;58.502;8.624;2023-11-19T10:17:48;99497.78;;;-2.58;89.77
83152;BME280;73381;58.502;8.624;2023-11-19T10:20:52;99507.09;;;-2.54;89.85
83152;BME280;73381;58.502;8.624;2023-11-19T10:23:56;99490.94;;;-2.59;89.23
83152;BME280;73381;58.502;8.624;2023-11-19T10:26:59;99475.56;;;-2.62;89.72
83152;BME280;73381;58.502;8.624;2023-11-19T10:30:01;99421.22;;;-3.04;89.56
83152;BME280;73381;58.502;8.624;2023-11-19T10:33:05;99471.38;;;-2.64;89.10
83152;BME280;73381;58.502;8.624;2023-11-19T10:36:09;99475.19;;;-2.75;89.31
83152;BME280;73381;58.502;8.624;2023-11-19T10:39:11;99481.13;;;-2.73;89.87
83152;BME280;73381;58.502;8.624;2023-11-19T10:42:15;99447.94;;;-2.83;90.30
83152;BME280;73381;58.502;8.624;2023-11-19T10:45:23;99479.19;;;-2.66;89.59
83152;BME280;73381;58.502;8.624;2023-11-19T10:48:26;99387.00;;;-3.09;90.15
83152;BME280;73381;58.502;8.624;2023-11-19T10:51:31;99472.13;;;-2.62;88.83
83152;BME280;73381;58.502;8.624;2023-11-19T10:54:34;99461.69;;;-2.59;89.35
83152;BME280;73381;58.502;8.624;2023-11-19T10:57:37;99441.34;;;-2.69;90.12
83152;BME280;73381;58.502;8.624;2023-11-19T11:00:44;99426.28;;;-2.79;88.88
83152;BME280;73381;58.502;8.624;2023-11-19T11:03:47;99390.81;;;-2.97;89.60
83152;BME280;73381;58.502;8.624;2023-11-19T11:06:51;99455.72;;;-2.61;89.42
83152;BME280;73381;58.502;8.624;2023-11-19T11:09:54;99452.94;;;-2.57;89.18
83152;BME280;73381;58.502;8.624;2023-11-19T11:12:59;99448.81;;;-2.61;89.75
83152;BME280;73381;58.502;8.624;2023-11-19T11:16:04;99366.34;;;-3.11;89.79
83152;BME280;73381;58.502;8.624;2023-11-19T11:19:07;99445.97;;;-2.55;90.24
83152;BME280;73381;58.502;8.624;2023-11-19T11:22:13;99455.47;;;-2.55;89.29
83152;BME280;73381;58.502;8.624;2023-11-19T11:25:42;99438.22;;;-2.55;89.16
83152;BME280;73381;58.502;8.624;2023-11-19T11:28:52;99433.88;;;-2.54;89.84
83152;BME280;73381;58.502;8.624;2023-11-19T11:32:04;99433.88;;;-2.54;89.60
83152;BME280;73381;58.502;8.624;2023-11-19T11:35:24;99440.44;;;-2.46;88.50
83152;BME280;73381;58.502;8.624;2023-11-19T11:38:37;99450.59;;;-2.41;89.36
83152;BME280;73381;58.502;8.624;2023-11-19T11:41:39;99427.47;;;-2.44;88.74
83152;BME280;73381;58.502;8.624;2023-11-19T11:45:00;99427.41;;;-2.43;88.08
83152;BME280;73381;58.502;8.624;2023-11-19T11:48:09;99444.41;;;-2.37;88.51
83152;BME280;73381;58.502;8.624;2023-11-19T11:51:12;99418.09;;;-2.47;87.86
83152;BME280;73381;58.502;8.624;2023-11-19T11:54:28;99426.88;;;-2.51;87.90
83152;BME280;73381;58.502;8.624;2023-11-19T11:57:36;99447.94;;;-2.40;88.58
83152;BME280;73381;58.502;8.624;2023-11-19T12:00:39;99362.81;;;-2.86;88.79
83152;BME280;73381;58.502;8.624;2023-11-19T12:03:44;99449.47;;;-2.34;88.66
83152;BME280;73381;58.502;8.624;2023-11-19T12:07:03;99449.53;;;-2.35;88.83
83152;BME280;73381;58.502;8.624;2023-11-19T12:10:08;99439.00;;;-2.31;88.08
83152;BME280;73381;58.502;8.624;2023-11-19T12:13:11;99444.09;;;-2.29;87.94
83152;BME280;73381;58.502;8.624;2023-11-19T12:16:13;99419.91;;;-2.49;88.39
83152;BME280;73381;58.502;8.624;2023-11-19T12:19:17;99440.47;;;-2.25;87.80
83152;BME280;73381;58.502;8.624;2023-11-19T12:22:25;99339.91;;;-2.94;88.06
83152;BME280;73381;58.502;8.624;2023-11-19T12:25:34;99440.66;;;-2.30;88.60
83152;BME280;73381;58.502;8.624;2023-11-19T12:28:36;99448.56;;;-2.33;88.86
83152;BME280;73381;58.502;8.624;2023-11-19T12:31:38;99380.34;;;-2.73;88.78
83152;BME280;73381;58.502;8.624;2023-11-19T12:34:41;99443.66;;;-2.39;89.04
83152;BME280;73381;58.502;8.624;2023-11-19T12:37:44;99432.56;;;-2.43;89.31
83152;BME280;73381;58.502;8.624;2023-11-19T12:41:02;99437.84;;;-2.24;88.10
83152;BME280;73381;58.502;8.624;2023-11-19T12:44:11;99428.44;;;-2.26;88.12
83152;BME280;73381;58.502;8.624;2023-11-19T12:47:17;99437.50;;;-2.16;88.04
83152;BME280;73381;58.502;8.624;2023-11-19T12:50:19;99434.72;;;-2.12;87.91
83152;BME280;73381;58.502;8.624;2023-11-19T12:53:22;99429.81;;;-2.18;88.08
83152;BME280;73381;58.502;8.624;2023-11-19T12:56:25;99429.88;;;-2.19;89.65
83152;BME280;73381;58.502;8.624;2023-11-19T12:59:28;99308.63;;;-2.88;88.19
83152;BME280;73381;58.502;8.624;2023-11-19T13:02:45;99356.81;;;-2.65;88.88
83152;BME280;73381;58.502;8.624;2023-11-19T13:05:47;99415.16;;;-2.17;87.86
83152;BME280;73381;58.502;8.624;2023-11-19T13:08:50;99433.97;;;-2.14;88.16
83152;BME280;73381;58.502;8.624;2023-11-19T13:11:56;99422.66;;;-2.11;88.83
83152;BME280;73381;58.502;8.624;2023-11-19T13:14:57;99418.25;;;-2.09;88.13
83152;BME280;73381;58.502;8.624;2023-11-19T13:18:00;99416.59;;;-2.10;88.07
83152;BME280;73381;58.502;8.624;2023-11-19T13:21:02;99347.75;;;-2.55;88.16
83152;BME280;73381;58.502;8.624;2023-11-19T13:24:05;99415.84;;;-2.14;88.20
83152;BME280;73381;58.502;8.624;2023-11-19T13:27:13;99357.50;;;-2.61;88.67
83152;BME280;73381;58.502;8.624;2023-11-19T13:30:16;99417.88;;;-2.20;87.78
83152;BME280;73381;58.502;8.624;2023-11-19T13:33:29;99393.41;;;-2.33;89.43
83152;BME280;73381;58.502;8.624;2023-11-19T13:36:33;99404.94;;;-2.20;88.71
83152;BME280;73381;58.502;8.624;2023-11-19T13:39:35;99405.06;;;-2.23;88.77
83152;BME280;73381;58.502;8.624;2023-11-19T13:42:39;99371.50;;;-2.45;88.83
83152;BME280;73381;58.502;8.624;2023-11-19T13:45:45;99419.75;;;-2.24;89.05
83152;BME280;73381;58.502;8.624;2023-11-19T13:48:49;99392.44;;;-2.31;89.40
83152;BME280;73381;58.502;8.624;2023-11-19T13:51:51;99405.84;;;-2.21;89.07
83152;BME280;73381;58.502;8.624;2023-11-19T13:54:53;99342.06;;;-2.63;89.04
83152;BME280;73381;58.502;8.624;2023-11-19T13:57:57;99414.56;;;-2.24;88.80
83152;BME280;73381;58.502;8.624;2023-11-19T14:00:59;99307.03;;;-2.90;89.57
83152;BME280;73381;58.502;8.624;2023-11-19T14:04:02;99420.38;;;-2.39;89.38
83152;BME280;73381;58.502;8.624;2023-11-19T14:07:06;99408.78;;;-2.51;89.39
83152;BME280;73381;58.502;8.624;2023-11-19T14:10:08;99419.78;;;-2.46;89.38
83152;BME280;73381;58.502;8.624;2023-11-19T14:13:12;99414.47;;;-2.43;90.21
83152;BME280;73381;58.502;8.624;2023-11-19T14:16:14;99392.53;;;-2.54;90.16
83152;BME280;73381;58.502;8.624;2023-11-19T14:19:17;99419.50;;;-2.40;89.57
83152;BME280;73381;58.502;8.624;2023-11-19T14:22:19;99419.50;;;-2.40;89.46
83152;BME280;73381;58.502;8.624;2023-11-19T14:25:21;99397.91;;;-2.59;89.71
83152;BME280;73381;58.502;8.624;2023-11-19T14:28:25;99426.63;;;-2.45;89.95
83152;BME280;73381;58.502;8.624;2023-11-19T14:31:28;99411.38;;;-2.51;90.13
83152;BME280;73381;58.502;8.624;2023-11-19T14:34:30;99411.38;;;-2.51;89.94
83152;BME280;73381;58.502;8.624;2023-11-19T14:37:32;99426.75;;;-2.48;89.92
83152;BME280;73381;58.502;8.624;2023-11-19T14:40:34;99419.91;;;-2.49;90.14
83152;BME280;73381;58.502;8.624;2023-11-19T14:43:42;99390.41;;;-2.65;89.55
83152;BME280;73381;58.502;8.624;2023-11-19T14:46:44;99431.22;;;-2.51;89.74
83152;BME280;73381;58.502;8.624;2023-11-19T14:49:49;99430.25;;;-2.49;89.77
83152;BME280;73381;58.502;8.624;2023-11-19T14:52:52;99419.91;;;-2.49;89.02
83152;BME280;73381;58.502;8.624;2023-11-19T14:55:55;99411.59;;;-2.57;89.81
83152;BME280;73381;58.502;8.624;2023-11-19T14:58:58;99356.31;;;-2.95;89.36
83152;BME280;73381;58.502;8.624;2023-11-19T15:02:01;99423.53;;;-2.53;89.73
83152;BME280;73381;58.502;8.624;2023-11-19T15:05:05;99424.28;;;-2.51;89.52
83152;BME280;73381;58.502;8.624;2023-11-19T15:08:08;99346.25;;;-3.03;89.79
83152;BME280;73381;58.502;8.624;2023-11-19T15:11:11;99365.53;;;-2.89;89.72
83152;BME280;73381;58.502;8.624;2023-11-19T15:14:16;99431.38;;;-2.56;89.74
83152;BME280;73381;58.502;8.624;2023-11-19T15:17:18;99428.06;;;-2.59;90.43
83152;BME280;73381;58.502;8.624;2023-11-19T15:20:22;99399.34;;;-2.74;90.30
83152;BME280;73381;58.502;8.624;2023-11-19T15:23:24;99371.72;;;-2.93;89.66
83152;BME280;73381;58.502;8.624;2023-11-19T15:26:26;99424.53;;;-2.57;89.47
83152;BME280;73381;58.502;8.624;2023-11-19T15:29:29;99407.03;;;-2.72;89.96
83152;BME280;73381;58.502;8.624;2023-11-19T15:32:31;99406.25;;;-2.74;90.25
83152;BME280;73381;58.502;8.624;2023-11-19T15:35:34;99415.34;;;-2.64;89.57
83152;BME280;73381;58.502;8.624;2023-11-19T15:38:36;99438.13;;;-2.52;90.21
83152;BME280;73381;58.502;8.624;2023-11-19T15:41:42;99439.03;;;-2.53;89.32
83152;BME280;73381;58.502;8.624;2023-11-19T15:44:46;99437.16;;;-2.49;89.89
83152;BME280;73381;58.502;8.624;2023-11-19T15:47:55;99427.72;;;-2.50;89.78
83152;BME280;73381;58.502;8.624;2023-11-19T15:51:02;99447.44;;;-2.48;90.36
83152;BME280;73381;58.502;8.624;2023-11-19T15:54:06;99433.06;;;-2.55;89.91
83152;BME280;73381;58.502;8.624;2023-11-19T15:57:10;99426.97;;;-2.54;89.47
83152;BME280;73381;58.502;8.624;2023-11-19T16:00:15;99443.09;;;-2.47;90.19
83152;BME280;73381;58.502;8.624;2023-11-19T16:03:17;99429.94;;;-2.63;90.26
83152;BME280;73381;58.502;8.624;2023-11-19T16:06:20;99454.28;;;-2.47;89.40
83152;BME280;73381;58.502;8.624;2023-11-19T16:09:26;99440.38;;;-2.44;89.14
83152;BME280;73381;58.502;8.624;2023-11-19T16:12:28;99451.56;;;-2.44;90.23